sensor_id;sensor_type;location;lat;lon;timestamp;temperature;humidity
14733;DHT22;7457;50.960;6.830;2022-11-21T00:00:58;6.70;98.50
14733;DHT22;7457;50.960;6.830;2022-11-21T00:03:23;6.80;98.50
14733;DHT22;7457;50.960;6.830;2022-11-21T00:05:50;6.80;98.50
14733;DHT22;7457;50.960;6.830;2022-11-21T00:08:17;6.70;98.50
14733;DHT22;7457;50.960;6.830;2022-11-21T00:10:44;6.70;98.40
14733;DHT22;7457;50.960;6.830;2022-11-21T00:13:18;6.70;98.40
14733;DHT22;7457;50.960;6.830;2022-11-21T00:15:44;6.70;98.40
14733;DHT22;7457;50.960;6.830;2022-11-21T00:18:10;6.70;98.30
14733;DHT22;7457;50.960;6.830;2022-11-21T00:20:37;6.70;98.30
14733;DHT22;7457;50.960;6.830;2022-11-21T00:23:04;6.70;98.30
14733;DHT22;7457;50.960;6.830;2022-11-21T00:25:29;6.70;98.20
14733;DHT22;7457;50.960;6.830;2022-11-21T00:27:55;6.80;98.20
14733;DHT22;7457;50.960;6.830;2022-11-21T00:30:20;6.80;98.00
14733;DHT22;7457;50.960;6.830;2022-11-21T00:32:46;6.80;97.80
14733;DHT22;7457;50.960;6.830;2022-11-21T00:35:12;6.70;97.50
14733;DHT22;7457;50.960;6.830;2022-11-21T00:37:38;6.70;97.40
14733;DHT22;7457;50.960;6.830;2022-11-21T00:40:04;6.70;97.30
14733;DHT22;7457;50.960;6.830;2022-11-21T00:42:30;6.70;97.30
14733;DHT22;7457;50.960;6.830;2022-11-21T00:44:56;6.60;97.30
14733;DHT22;7457;50.960;6.830;2022-11-21T00:47:21;6.60;97.40
14733;DHT22;7457;50.960;6.830;2022-11-21T00:49:47;6.50;97.30
14733;DHT22;7457;50.960;6.830;2022-11-21T00:52:13;6.50;97.40
14733;DHT22;7457;50.960;6.830;2022-11-21T00:54:38;6.50;97.50
14733;DHT22;7457;50.960;6.830;2022-11-21T00:57:04;6.50;97.50
14733;DHT22;7457;50.960;6.830;2022-11-21T00:59:29;6.50;97.50
14733;DHT22;7457;50.960;6.830;2022-11-21T01:01:55;6.60;97.50
14733;DHT22;7457;50.960;6.830;2022-11-21T01:04:21;6.60;97.50
14733;DHT22;7457;50.960;6.830;2022-11-21T01:06:46;6.60;97.40
14733;DHT22;7457;50.960;6.830;2022-11-21T01:09:12;6.70;97.30
14733;DHT22;7457;50.960;6.830;2022-11-21T01:11:38;6.70;97.20
14733;DHT22;7457;50.960;6.830;2022-11-21T01:14:03;6.70;97.10
14733;DHT22;7457;50.960;6.830;2022-11-21T01:16:29;6.60;96.90
14733;DHT22;7457;50.960;6.830;2022-11-21T01:18:56;6.60;96.80
14733;DHT22;7457;50.960;6.830;2022-11-21T01:21:23;6.60;96.80
14733;DHT22;7457;50.960;6.830;2022-11-21T01:23:49;6.50;96.90
14733;DHT22;7457;50.960;6.830;2022-11-21T01:26:17;6.50;97.00
14733;DHT22;7457;50.960;6.830;2022-11-21T01:28:43;6.50;97.10
14733;DHT22;7457;50.960;6.830;2022-11-21T01:31:11;6.50;97.10
14733;DHT22;7457;50.960;6.830;2022-11-21T01:33:37;6.50;97.20
14733;DHT22;7457;50.960;6.830;2022-11-21T01:36:09;6.60;97.20
14733;DHT22;7457;50.960;6.830;2022-11-21T01:38:36;6.60;97.20
14733;DHT22;7457;50.960;6.830;2022-11-21T01:41:01;6.60;97.20
14733;DHT22;7457;50.960;6.830;2022-11-21T01:43:27;6.60;97.10
14733;DHT22;7457;50.960;6.830;2022-11-21T01:48:55;6.60;97.10
14733;DHT22;7457;50.960;6.830;2022-11-21T01:56:26;6.60;97.00
14733;DHT22;7457;50.960;6.830;2022-11-21T01:58:55;6.60;96.90
14733;DHT22;7457;50.960;6.830;2022-11-21T02:01:22;6.60;96.90
14733;DHT22;7457;50.960;6.830;2022-11-21T02:03:48;6.60;96.90
14733;DHT22;7457;50.960;6.830;2022-11-21T02:06:15;6.60;96.80
14733;DHT22;7457;50.960;6.830;2022-11-21T02:08:41;6.60;96.80
14733;DHT22;7457;50.960;6.830;2022-11-21T02:11:13;6.50;96.80
14733;DHT22;7457;50.960;6.830;2022-11-21T02:13:41;6.50;96.80
14733;DHT22;7457;50.960;6.830;2022-11-21T02:16:07;6.50;96.80
14733;DHT22;7457;50.960;6.830;2022-11-21T02:18:33;6.50;96.70
14733;DHT22;7457;50.960;6.830;2022-11-21T02:21:09;6.50;96.70
14733;DHT22;7457;50.960;6.830;2022-11-21T02:24:06;6.50;96.70
14733;DHT22;7457;50.960;6.830;2022-11-21T02:26:34;6.50;96.70
14733;DHT22;7457;50.960;6.830;2022-11-21T02:29:00;6.50;96.80
14733;DHT22;7457;50.960;6.830;2022-11-21T02:31:26;6.40;96.70
14733;DHT22;7457;50.960;6.830;2022-11-21T02:33:51;6.40;96.70
14733;DHT22;7457;50.960;6.830;2022-11-21T02:36:42;6.40;96.70
14733;DHT22;7457;50.960;6.830;2022-11-21T02:39:24;6.50;96.60
14733;DHT22;7457;50.960;6.830;2022-11-21T02:42:23;6.40;96.60
14733;DHT22;7457;50.960;6.830;2022-11-21T02:45:22;6.40;96.50
14733;DHT22;7457;50.960;6.830;2022-11-21T02:47:53;6.40;96.40
14733;DHT22;7457;50.960;6.830;2022-11-21T02:50:22;6.40;96.30
14733;DHT22;7457;50.960;6.830;2022-11-21T02:52:50;6.40;96.30
14733;DHT22;7457;50.960;6.830;2022-11-21T02:55:16;6.30;96.30
14733;DHT22;7457;50.960;6.830;2022-11-21T02:57:41;6.30;96.30
14733;DHT22;7457;50.960;6.830;2022-11-21T03:00:08;6.30;96.20
14733;DHT22;7457;50.960;6.830;2022-11-21T03:02:34;6.30;96.20
14733;DHT22;7457;50.960;6.830;2022-11-21T03:05:01;6.20;96.30
14733;DHT22;7457;50.960;6.830;2022-11-21T03:07:26;6.20;96.40
14733;DHT22;7457;50.960;6.830;2022-11-21T03:09:52;6.20;96.50
14733;DHT22;7457;50.960;6.830;2022-11-21T03:12:18;6.20;96.50
14733;DHT22;7457;50.960;6.830;2022-11-21T03:14:43;6.20;96.50
14733;DHT22;7457;50.960;6.830;2022-11-21T03:17:09;6.20;96.50
14733;DHT22;7457;50.960;6.830;2022-11-21T03:19:34;6.30;96.50
14733;DHT22;7457;50.960;6.830;2022-11-21T03:22:00;6.30;96.50
14733;DHT22;7457;50.960;6.830;2022-11-21T03:24:26;6.30;96.50
14733;DHT22;7457;50.960;6.830;2022-11-21T03:26:51;6.30;96.40
14733;DHT22;7457;50.960;6.830;2022-11-21T03:29:17;6.30;96.50
14733;DHT22;7457;50.960;6.830;2022-11-21T03:31:42;6.30;96.40
14733;DHT22;7457;50.960;6.830;2022-11-21T03:34:08;6.30;96.40
14733;DHT22;7457;50.960;6.830;2022-11-21T03:36:34;6.30;96.30
14733;DHT22;7457;50.960;6.830;2022-11-21T03:38:59;6.30;96.30
14733;DHT22;7457;50.960;6.830;2022-11-21T03:41:26;6.30;96.20
14733;DHT22;7457;50.960;6.830;2022-11-21T03:43:58;6.30;96.20
14733;DHT22;7457;50.960;6.830;2022-11-21T03:46:24;6.30;96.20
14733;DHT22;7457;50.960;6.830;2022-11-21T03:48:50;6.20;96.20
14733;DHT22;7457;50.960;6.830;2022-11-21T03:51:15;6.20;96.10
14733;DHT22;7457;50.960;6.830;2022-11-21T03:53:41;6.20;96.10
14733;DHT22;7457;50.960;6.830;2022-11-21T03:56:06;6.20;96.10
14733;DHT22;7457;50.960;6.830;2022-11-21T03:58:32;6.20;96.00
14733;DHT22;7457;50.960;6.830;2022-11-21T04:00:58;6.20;96.00
14733;DHT22;7457;50.960;6.830;2022-11-21T04:03:23;6.20;96.10
14733;DHT22;7457;50.960;6.830;2022-11-21T04:05:49;6.20;96.10
14733;DHT22;7457;50.960;6.830;2022-11-21T04:08:14;6.20;96.10
14733;DHT22;7457;50.960;6.830;2022-11-21T04:10:48;6.20;96.10
14733;DHT22;7457;50.960;6.830;2022-11-21T04:13:14;6.20;96.10
14733;DHT22;7457;50.960;6.830;2022-11-21T04:15:40;6.20;96.10
14733;DHT22;7457;50.960;6.830;2022-11-21T04:18:06;6.10;96.20
14733;DHT22;7457;50.960;6.830;2022-11-21T04:20:32;6.10;96.20
14733;DHT22;7457;50.960;6.830;2022-11-21T04:22:57;6.10;96.20
14733;DHT22;7457;50.960;6.830;2022-11-21T04:25:23;6.10;96.30
14733;DHT22;7457;50.960;6.830;2022-11-21T04:27:49;6.10;96.30
14733;DHT22;7457;50.960;6.830;2022-11-21T04:30:15;6.10;96.30
14733;DHT22;7457;50.960;6.830;2022-11-21T04:32:41;6.10;96.30
14733;DHT22;7457;50.960;6.830;2022-11-21T04:35:07;6.10;96.30
14733;DHT22;7457;50.960;6.830;2022-11-21T04:37:33;6.10;96.40
14733;DHT22;7457;50.960;6.830;2022-11-21T04:39:58;6.10;96.40
14733;DHT22;7457;50.960;6.830;2022-11-21T04:42:24;6.10;96.40
14733;DHT22;7457;50.960;6.830;2022-11-21T04:44:49;6.10;96.60
14733;DHT22;7457;50.960;6.830;2022-11-21T04:47:15;6.10;96.60
14733;DHT22;7457;50.960;6.830;2022-11-21T04:49:40;6.10;96.60
14733;DHT22;7457;50.960;6.830;2022-11-21T04:52:06;6.10;96.60
14733;DHT22;7457;50.960;6.830;2022-11-21T04:54:31;6.10;96.60
14733;DHT22;7457;50.960;6.830;2022-11-21T04:56:57;6.10;96.60
14733;DHT22;7457;50.960;6.830;2022-11-21T04:59:23;6.10;96.70
14733;DHT22;7457;50.960;6.830;2022-11-21T05:01:48;6.10;96.70
14733;DHT22;7457;50.960;6.830;2022-11-21T05:04:14;6.10;96.70
14733;DHT22;7457;50.960;6.830;2022-11-21T05:06:39;6.10;96.70
14733;DHT22;7457;50.960;6.830;2022-11-21T05:09:05;6.10;96.70
14733;DHT22;7457;50.960;6.830;2022-11-21T05:11:30;6.10;96.70
14733;DHT22;7457;50.960;6.830;2022-11-21T05:14:15;6.20;96.70
14733;DHT22;7457;50.960;6.830;2022-11-21T05:16:40;6.20;96.70
14733;DHT22;7457;50.960;6.830;2022-11-21T05:19:07;6.20;96.80
14733;DHT22;7457;50.960;6.830;2022-11-21T05:21:33;6.20;96.80
14733;DHT22;7457;50.960;6.830;2022-11-21T05:23:58;6.20;96.80
14733;DHT22;7457;50.960;6.830;2022-11-21T05:26:24;6.20;96.90
14733;DHT22;7457;50.960;6.830;2022-11-21T05:28:49;6.20;96.90
14733;DHT22;7457;50.960;6.830;2022-11-21T05:31:15;6.20;96.90
14733;DHT22;7457;50.960;6.830;2022-11-21T05:33:40;6.30;96.90
14733;DHT22;7457;50.960;6.830;2022-11-21T05:36:06;6.30;96.90
14733;DHT22;7457;50.960;6.830;2022-11-21T05:38:32;6.30;96.80
14733;DHT22;7457;50.960;6.830;2022-11-21T05:40:57;6.30;96.90
14733;DHT22;7457;50.960;6.830;2022-11-21T05:43:23;6.20;96.80
14733;DHT22;7457;50.960;6.830;2022-11-21T05:46:07;6.20;96.80
14733;DHT22;7457;50.960;6.830;2022-11-21T05:48:33;6.20;96.90
14733;DHT22;7457;50.960;6.830;2022-11-21T05:51:02;6.20;96.90
14733;DHT22;7457;50.960;6.830;2022-11-21T05:53:27;6.20;96.90
14733;DHT22;7457;50.960;6.830;2022-11-21T05:55:53;6.20;96.90
14733;DHT22;7457;50.960;6.830;2022-11-21T05:58:19;6.20;97.00
14733;DHT22;7457;50.960;6.830;2022-11-21T06:00:44;6.10;97.00
14733;DHT22;7457;50.960;6.830;2022-11-21T06:03:10;6.10;97.00
14733;DHT22;7457;50.960;6.830;2022-11-21T06:05:52;6.10;97.10
14733;DHT22;7457;50.960;6.830;2022-11-21T06:08:18;6.10;97.20
14733;DHT22;7457;50.960;6.830;2022-11-21T06:10:43;6.10;97.20
14733;DHT22;7457;50.960;6.830;2022-11-21T06:13:09;6.10;97.20
14733;DHT22;7457;50.960;6.830;2022-11-21T06:15:50;6.10;97.30
14733;DHT22;7457;50.960;6.830;2022-11-21T06:18:16;6.10;97.30
14733;DHT22;7457;50.960;6.830;2022-11-21T06:20:42;6.10;97.30
14733;DHT22;7457;50.960;6.830;2022-11-21T06:23:07;6.20;97.30
14733;DHT22;7457;50.960;6.830;2022-11-21T06:25:33;6.20;97.30
14733;DHT22;7457;50.960;6.830;2022-11-21T06:27:59;6.20;97.20
14733;DHT22;7457;50.960;6.830;2022-11-21T06:30:25;6.20;97.20
14733;DHT22;7457;50.960;6.830;2022-11-21T06:32:50;6.20;97.20
14733;DHT22;7457;50.960;6.830;2022-11-21T06:35:16;6.20;97.20
14733;DHT22;7457;50.960;6.830;2022-11-21T06:37:41;6.20;97.20
14733;DHT22;7457;50.960;6.830;2022-11-21T06:40:10;6.20;97.20
14733;DHT22;7457;50.960;6.830;2022-11-21T06:42:36;6.20;97.20
14733;DHT22;7457;50.960;6.830;2022-11-21T06:45:01;6.20;97.30
14733;DHT22;7457;50.960;6.830;2022-11-21T06:47:27;6.20;97.30
14733;DHT22;7457;50.960;6.830;2022-11-21T06:49:52;6.20;97.40
14733;DHT22;7457;50.960;6.830;2022-11-21T06:52:18;6.20;97.40
14733;DHT22;7457;50.960;6.830;2022-11-21T06:54:43;6.20;97.40
14733;DHT22;7457;50.960;6.830;2022-11-21T06:57:09;6.20;97.50
14733;DHT22;7457;50.960;6.830;2022-11-21T06:59:35;6.20;97.60
14733;DHT22;7457;50.960;6.830;2022-11-21T07:02:00;6.10;97.60
14733;DHT22;7457;50.960;6.830;2022-11-21T07:04:26;6.10;97.60
14733;DHT22;7457;50.960;6.830;2022-11-21T07:06:51;6.10;97.70
14733;DHT22;7457;50.960;6.830;2022-11-21T07:09:17;6.10;97.80
14733;DHT22;7457;50.960;6.830;2022-11-21T07:11:43;6.10;98.00
14733;DHT22;7457;50.960;6.830;2022-11-21T07:14:08;6.10;98.30
14733;DHT22;7457;50.960;6.830;2022-11-21T07:16:34;6.10;98.50
14733;DHT22;7457;50.960;6.830;2022-11-21T07:19:00;6.10;98.60
14733;DHT22;7457;50.960;6.830;2022-11-21T07:21:25;6.20;98.70
14733;DHT22;7457;50.960;6.830;2022-11-21T07:23:51;6.20;98.80
14733;DHT22;7457;50.960;6.830;2022-11-21T07:26:17;6.20;98.40
14733;DHT22;7457;50.960;6.830;2022-11-21T07:28:42;6.20;98.10
14733;DHT22;7457;50.960;6.830;2022-11-21T07:31:09;6.20;98.00
14733;DHT22;7457;50.960;6.830;2022-11-21T07:33:35;6.30;98.00
14733;DHT22;7457;50.960;6.830;2022-11-21T07:36:02;6.20;98.10
14733;DHT22;7457;50.960;6.830;2022-11-21T07:38:27;6.30;98.20
14733;DHT22;7457;50.960;6.830;2022-11-21T07:40:55;6.30;98.10
14733;DHT22;7457;50.960;6.830;2022-11-21T07:43:21;6.30;97.70
14733;DHT22;7457;50.960;6.830;2022-11-21T07:45:46;6.30;97.70
14733;DHT22;7457;50.960;6.830;2022-11-21T07:48:12;6.30;97.70
14733;DHT22;7457;50.960;6.830;2022-11-21T07:50:38;6.20;97.80
14733;DHT22;7457;50.960;6.830;2022-11-21T07:53:05;6.30;97.80
14733;DHT22;7457;50.960;6.830;2022-11-21T07:55:32;6.30;97.70
14733;DHT22;7457;50.960;6.830;2022-11-21T07:58:03;6.30;97.70
14733;DHT22;7457;50.960;6.830;2022-11-21T08:00:30;6.30;97.80
14733;DHT22;7457;50.960;6.830;2022-11-21T08:02:56;6.30;98.00
14733;DHT22;7457;50.960;6.830;2022-11-21T08:05:22;6.30;98.20
14733;DHT22;7457;50.960;6.830;2022-11-21T08:07:48;6.30;98.60
14733;DHT22;7457;50.960;6.830;2022-11-21T08:10:15;6.40;98.90
14733;DHT22;7457;50.960;6.830;2022-11-21T08:12:41;6.40;98.80
14733;DHT22;7457;50.960;6.830;2022-11-21T08:15:07;6.50;98.70
14733;DHT22;7457;50.960;6.830;2022-11-21T08:17:33;6.50;98.60
14733;DHT22;7457;50.960;6.830;2022-11-21T08:19:58;6.50;98.50
14733;DHT22;7457;50.960;6.830;2022-11-21T08:22:25;6.50;98.60
14733;DHT22;7457;50.960;6.830;2022-11-21T08:24:51;6.50;98.50
14733;DHT22;7457;50.960;6.830;2022-11-21T08:27:19;6.60;98.20
14733;DHT22;7457;50.960;6.830;2022-11-21T08:29:46;6.60;98.00
14733;DHT22;7457;50.960;6.830;2022-11-21T08:32:12;6.60;97.80
14733;DHT22;7457;50.960;6.830;2022-11-21T08:34:37;6.50;97.70
14733;DHT22;7457;50.960;6.830;2022-11-21T08:37:03;6.50;97.70
14733;DHT22;7457;50.960;6.830;2022-11-21T08:39:28;6.50;97.70
14733;DHT22;7457;50.960;6.830;2022-11-21T08:41:55;6.50;97.80
14733;DHT22;7457;50.960;6.830;2022-11-21T08:44:31;6.50;97.90
14733;DHT22;7457;50.960;6.830;2022-11-21T08:46:57;6.50;98.10
14733;DHT22;7457;50.960;6.830;2022-11-21T08:49:23;6.50;98.20
14733;DHT22;7457;50.960;6.830;2022-11-21T08:51:49;6.50;98.40
14733;DHT22;7457;50.960;6.830;2022-11-21T08:54:16;6.60;98.60
14733;DHT22;7457;50.960;6.830;2022-11-21T08:56:43;6.60;98.80
14733;DHT22;7457;50.960;6.830;2022-11-21T08:59:08;6.60;98.90
14733;DHT22;7457;50.960;6.830;2022-11-21T09:01:34;6.70;98.90
14733;DHT22;7457;50.960;6.830;2022-11-21T09:04:00;6.80;99.00
14733;DHT22;7457;50.960;6.830;2022-11-21T09:06:25;6.80;99.10
14733;DHT22;7457;50.960;6.830;2022-11-21T09:08:51;6.90;99.30
14733;DHT22;7457;50.960;6.830;2022-11-21T09:11:17;7.00;99.40
14733;DHT22;7457;50.960;6.830;2022-11-21T09:13:43;7.10;99.20
14733;DHT22;7457;50.960;6.830;2022-11-21T09:16:10;7.20;99.20
14733;DHT22;7457;50.960;6.830;2022-11-21T09:18:54;7.30;99.20
14733;DHT22;7457;50.960;6.830;2022-11-21T09:21:20;7.50;99.20
14733;DHT22;7457;50.960;6.830;2022-11-21T09:23:48;7.60;99.50
14733;DHT22;7457;50.960;6.830;2022-11-21T09:26:14;7.80;99.20
14733;DHT22;7457;50.960;6.830;2022-11-21T09:28:39;7.90;99.00
14733;DHT22;7457;50.960;6.830;2022-11-21T09:31:06;8.30;100.00
14733;DHT22;7457;50.960;6.830;2022-11-21T09:33:31;8.60;99.50
14733;DHT22;7457;50.960;6.830;2022-11-21T09:35:58;9.00;100.00
14733;DHT22;7457;50.960;6.830;2022-11-21T09:38:24;9.70;100.00
14733;DHT22;7457;50.960;6.830;2022-11-21T09:40:51;10.40;100.00
14733;DHT22;7457;50.960;6.830;2022-11-21T09:43:41;11.10;97.80
14733;DHT22;7457;50.960;6.830;2022-11-21T09:46:16;11.70;97.90
14733;DHT22;7457;50.960;6.830;2022-11-21T09:48:53;12.40;96.20
14733;DHT22;7457;50.960;6.830;2022-11-21T09:51:20;13.00;95.20
14733;DHT22;7457;50.960;6.830;2022-11-21T09:54:00;13.60;93.10
14733;DHT22;7457;50.960;6.830;2022-11-21T09:56:30;14.00;92.10
14733;DHT22;7457;50.960;6.830;2022-11-21T10:01:46;14.60;88.20
14733;DHT22;7457;50.960;6.830;2022-11-21T10:04:12;14.70;86.40
14733;DHT22;7457;50.960;6.830;2022-11-21T10:16:20;15.50;82.90
14733;DHT22;7457;50.960;6.830;2022-11-21T10:21:24;15.90;80.70
14733;DHT22;7457;50.960;6.830;2022-11-21T10:27:03;16.10;78.10
14733;DHT22;7457;50.960;6.830;2022-11-21T10:29:50;16.20;78.20
14733;DHT22;7457;50.960;6.830;2022-11-21T10:32:23;16.10;76.40
14733;DHT22;7457;50.960;6.830;2022-11-21T10:34:54;16.10;76.20
14733;DHT22;7457;50.960;6.830;2022-11-21T10:39:51;16.20;74.90
14733;DHT22;7457;50.960;6.830;2022-11-21T10:42:56;16.30;75.20
14733;DHT22;7457;50.960;6.830;2022-11-21T10:45:23;16.30;72.80
14733;DHT22;7457;50.960;6.830;2022-11-21T10:47:50;16.30;73.80
14733;DHT22;7457;50.960;6.830;2022-11-21T10:53:18;16.40;72.90
14733;DHT22;7457;50.960;6.830;2022-11-21T10:56:08;16.50;72.40
14733;DHT22;7457;50.960;6.830;2022-11-21T10:58:55;16.40;71.80
14733;DHT22;7457;50.960;6.830;2022-11-21T11:01:23;16.40;70.80
14733;DHT22;7457;50.960;6.830;2022-11-21T11:04:29;16.40;71.20
14733;DHT22;7457;50.960;6.830;2022-11-21T11:06:55;16.40;70.40
14733;DHT22;7457;50.960;6.830;2022-11-21T11:09:22;16.50;71.60
14733;DHT22;7457;50.960;6.830;2022-11-21T11:11:48;16.60;71.40
14733;DHT22;7457;50.960;6.830;2022-11-21T11:14:14;16.80;68.80
14733;DHT22;7457;50.960;6.830;2022-11-21T11:16:45;16.50;67.50
14733;DHT22;7457;50.960;6.830;2022-11-21T11:31:51;14.70;64.90
14733;DHT22;7457;50.960;6.830;2022-11-21T11:34:18;13.80;64.90
14733;DHT22;7457;50.960;6.830;2022-11-21T11:39:39;12.40;67.80
14733;DHT22;7457;50.960;6.830;2022-11-21T11:48:11;11.40;71.10
14733;DHT22;7457;50.960;6.830;2022-11-21T11:50:45;11.50;73.60
14733;DHT22;7457;50.960;6.830;2022-11-21T11:53:16;11.90;74.10
14733;DHT22;7457;50.960;6.830;2022-11-21T11:56:02;12.30;72.40
14733;DHT22;7457;50.960;6.830;2022-11-21T12:01:10;12.40;68.20
14733;DHT22;7457;50.960;6.830;2022-11-21T12:06:20;12.20;69.70
14733;DHT22;7457;50.960;6.830;2022-11-21T12:08:53;12.40;69.50
14733;DHT22;7457;50.960;6.830;2022-11-21T12:11:33;12.70;69.00
14733;DHT22;7457;50.960;6.830;2022-11-21T12:17:26;13.40;68.90
14733;DHT22;7457;50.960;6.830;2022-11-21T12:19:55;13.50;67.40
14733;DHT22;7457;50.960;6.830;2022-11-21T12:22:23;13.10;63.70
14733;DHT22;7457;50.960;6.830;2022-11-21T12:24:48;12.50;64.80
14733;DHT22;7457;50.960;6.830;2022-11-21T12:27:23;11.80;65.20
14733;DHT22;7457;50.960;6.830;2022-11-21T12:35:03;10.70;68.20
14733;DHT22;7457;50.960;6.830;2022-11-21T12:37:58;10.40;69.00
14733;DHT22;7457;50.960;6.830;2022-11-21T12:46:37;10.10;69.70
14733;DHT22;7457;50.960;6.830;2022-11-21T12:55:17;10.20;69.70
14733;DHT22;7457;50.960;6.830;2022-11-21T12:58:07;10.10;68.60
14733;DHT22;7457;50.960;6.830;2022-11-21T13:04:04;10.00;68.40
14733;DHT22;7457;50.960;6.830;2022-11-21T13:06:38;9.80;68.10
14733;DHT22;7457;50.960;6.830;2022-11-21T13:09:08;9.60;68.60
14733;DHT22;7457;50.960;6.830;2022-11-21T13:11:40;9.50;69.00
14733;DHT22;7457;50.960;6.830;2022-11-21T13:19:57;9.30;69.60
14733;DHT22;7457;50.960;6.830;2022-11-21T13:25:11;9.10;69.90
14733;DHT22;7457;50.960;6.830;2022-11-21T13:27:43;9.10;70.30
14733;DHT22;7457;50.960;6.830;2022-11-21T13:32:54;9.10;71.00
14733;DHT22;7457;50.960;6.830;2022-11-21T13:40:38;9.00;72.30
14733;DHT22;7457;50.960;6.830;2022-11-21T13:45:36;9.00;73.10
14733;DHT22;7457;50.960;6.830;2022-11-21T13:48:31;8.90;73.10
14733;DHT22;7457;50.960;6.830;2022-11-21T14:07:48;8.70;72.80
14733;DHT22;7457;50.960;6.830;2022-11-21T14:10:32;8.70;72.60
14733;DHT22;7457;50.960;6.830;2022-11-21T14:12:59;8.70;72.70
14733;DHT22;7457;50.960;6.830;2022-11-21T14:18:29;8.60;72.90
14733;DHT22;7457;50.960;6.830;2022-11-21T14:20:58;8.60;72.90
14733;DHT22;7457;50.960;6.830;2022-11-21T14:23:26;8.50;73.10
14733;DHT22;7457;50.960;6.830;2022-11-21T14:25:58;8.50;73.10
14733;DHT22;7457;50.960;6.830;2022-11-21T14:28:26;8.40;73.20
14733;DHT22;7457;50.960;6.830;2022-11-21T14:31:00;8.40;73.30
14733;DHT22;7457;50.960;6.830;2022-11-21T14:33:31;8.30;73.60
14733;DHT22;7457;50.960;6.830;2022-11-21T14:36:19;8.30;73.50
14733;DHT22;7457;50.960;6.830;2022-11-21T14:38:51;8.30;73.80
14733;DHT22;7457;50.960;6.830;2022-11-21T14:44:35;8.20;74.00
14733;DHT22;7457;50.960;6.830;2022-11-21T14:46:40;8.10;74.00
14733;DHT22;7457;50.960;6.830;2022-11-21T14:51:42;8.00;74.20
14733;DHT22;7457;50.960;6.830;2022-11-21T14:54:23;8.00;74.50
14733;DHT22;7457;50.960;6.830;2022-11-21T14:56:57;7.90;74.80
14733;DHT22;7457;50.960;6.830;2022-11-21T14:59:29;7.90;75.00
14733;DHT22;7457;50.960;6.830;2022-11-21T15:02:01;7.80;75.30
14733;DHT22;7457;50.960;6.830;2022-11-21T15:04:33;7.80;75.30
14733;DHT22;7457;50.960;6.830;2022-11-21T15:06:59;7.70;75.50
14733;DHT22;7457;50.960;6.830;2022-11-21T15:09:25;7.70;75.50
14733;DHT22;7457;50.960;6.830;2022-11-21T15:12:04;7.70;75.80
14733;DHT22;7457;50.960;6.830;2022-11-21T15:17:12;7.60;76.00
14733;DHT22;7457;50.960;6.830;2022-11-21T15:19:41;7.60;76.10
14733;DHT22;7457;50.960;6.830;2022-11-21T15:22:26;7.60;76.10
14733;DHT22;7457;50.960;6.830;2022-11-21T15:27:37;7.60;76.30
14733;DHT22;7457;50.960;6.830;2022-11-21T15:33:04;7.50;76.50
14733;DHT22;7457;50.960;6.830;2022-11-21T15:41:00;7.40;77.00
14733;DHT22;7457;50.960;6.830;2022-11-21T15:43:43;7.40;77.00
14733;DHT22;7457;50.960;6.830;2022-11-21T15:48:43;7.40;77.10
14733;DHT22;7457;50.960;6.830;2022-11-21T15:51:09;7.30;77.10
14733;DHT22;7457;50.960;6.830;2022-11-21T15:53:36;7.30;77.10
14733;DHT22;7457;50.960;6.830;2022-11-21T15:56:01;7.30;77.10
14733;DHT22;7457;50.960;6.830;2022-11-21T15:58:27;7.30;77.20
14733;DHT22;7457;50.960;6.830;2022-11-21T16:00:53;7.30;77.20
14733;DHT22;7457;50.960;6.830;2022-11-21T16:03:18;7.30;77.30
14733;DHT22;7457;50.960;6.830;2022-11-21T16:05:44;7.30;77.20
14733;DHT22;7457;50.960;6.830;2022-11-21T16:08:09;7.30;77.30
14733;DHT22;7457;50.960;6.830;2022-11-21T16:10:35;7.30;77.40
14733;DHT22;7457;50.960;6.830;2022-11-21T16:13:01;7.20;77.50
14733;DHT22;7457;50.960;6.830;2022-11-21T16:15:26;7.20;77.50
14733;DHT22;7457;50.960;6.830;2022-11-21T16:17:52;7.20;77.60
14733;DHT22;7457;50.960;6.830;2022-11-21T16:20:18;7.20;77.60
14733;DHT22;7457;50.960;6.830;2022-11-21T16:22:43;7.20;77.70
14733;DHT22;7457;50.960;6.830;2022-11-21T16:25:09;7.20;77.70
14733;DHT22;7457;50.960;6.830;2022-11-21T16:27:35;7.20;77.80
14733;DHT22;7457;50.960;6.830;2022-11-21T16:30:00;7.20;78.00
14733;DHT22;7457;50.960;6.830;2022-11-21T16:32:26;7.20;78.10
14733;DHT22;7457;50.960;6.830;2022-11-21T16:34:52;7.20;78.20
14733;DHT22;7457;50.960;6.830;2022-11-21T16:37:19;7.10;78.30
14733;DHT22;7457;50.960;6.830;2022-11-21T16:39:45;7.10;78.40
14733;DHT22;7457;50.960;6.830;2022-11-21T16:42:17;7.10;78.50
14733;DHT22;7457;50.960;6.830;2022-11-21T16:44:43;7.10;78.60
14733;DHT22;7457;50.960;6.830;2022-11-21T16:47:10;7.10;78.80
14733;DHT22;7457;50.960;6.830;2022-11-21T16:49:35;7.10;79.00
14733;DHT22;7457;50.960;6.830;2022-11-21T16:52:07;7.10;79.10
14733;DHT22;7457;50.960;6.830;2022-11-21T16:54:33;7.10;79.30
14733;DHT22;7457;50.960;6.830;2022-11-21T16:56:59;7.10;79.40
14733;DHT22;7457;50.960;6.830;2022-11-21T16:59:24;7.10;79.50
14733;DHT22;7457;50.960;6.830;2022-11-21T17:01:50;7.10;79.70
14733;DHT22;7457;50.960;6.830;2022-11-21T17:04:16;7.10;79.60
14733;DHT22;7457;50.960;6.830;2022-11-21T17:06:42;7.10;79.50
14733;DHT22;7457;50.960;6.830;2022-11-21T17:09:07;7.10;79.70
14733;DHT22;7457;50.960;6.830;2022-11-21T17:11:33;7.10;79.90
14733;DHT22;7457;50.960;6.830;2022-11-21T17:14:04;7.10;80.10
14733;DHT22;7457;50.960;6.830;2022-11-21T17:16:31;7.10;80.20
14733;DHT22;7457;50.960;6.830;2022-11-21T17:18:59;7.00;80.40
14733;DHT22;7457;50.960;6.830;2022-11-21T17:21:26;7.00;80.50
14733;DHT22;7457;50.960;6.830;2022-11-21T17:23:52;7.00;80.80
14733;DHT22;7457;50.960;6.830;2022-11-21T17:26:20;7.00;80.70
14733;DHT22;7457;50.960;6.830;2022-11-21T17:28:58;7.00;81.00
14733;DHT22;7457;50.960;6.830;2022-11-21T17:31:24;7.00;81.00
14733;DHT22;7457;50.960;6.830;2022-11-21T17:33:50;7.00;81.10
14733;DHT22;7457;50.960;6.830;2022-11-21T17:36:19;7.00;81.20
14733;DHT22;7457;50.960;6.830;2022-11-21T17:38:45;7.00;81.30
14733;DHT22;7457;50.960;6.830;2022-11-21T17:41:13;6.90;81.20
14733;DHT22;7457;50.960;6.830;2022-11-21T17:43:39;6.90;81.30
14733;DHT22;7457;50.960;6.830;2022-11-21T17:46:06;6.90;81.30
14733;DHT22;7457;50.960;6.830;2022-11-21T17:48:34;6.90;81.40
14733;DHT22;7457;50.960;6.830;2022-11-21T17:51:21;6.90;81.40
14733;DHT22;7457;50.960;6.830;2022-11-21T17:53:49;6.90;81.30
14733;DHT22;7457;50.960;6.830;2022-11-21T17:56:18;6.90;81.30
14733;DHT22;7457;50.960;6.830;2022-11-21T17:58:44;6.90;81.30
14733;DHT22;7457;50.960;6.830;2022-11-21T18:01:11;6.80;81.30
14733;DHT22;7457;50.960;6.830;2022-11-21T18:03:46;6.90;81.30
14733;DHT22;7457;50.960;6.830;2022-11-21T18:06:13;6.80;81.30
14733;DHT22;7457;50.960;6.830;2022-11-21T18:08:41;6.80;81.30
14733;DHT22;7457;50.960;6.830;2022-11-21T18:11:09;6.80;81.40
14733;DHT22;7457;50.960;6.830;2022-11-21T18:13:36;6.80;81.40
14733;DHT22;7457;50.960;6.830;2022-11-21T18:16:07;6.80;81.40
14733;DHT22;7457;50.960;6.830;2022-11-21T18:18:34;6.80;81.40
14733;DHT22;7457;50.960;6.830;2022-11-21T18:21:02;6.80;81.30
14733;DHT22;7457;50.960;6.830;2022-11-21T18:23:28;6.80;81.40
14733;DHT22;7457;50.960;6.830;2022-11-21T18:25:54;6.90;81.30
14733;DHT22;7457;50.960;6.830;2022-11-21T18:28:19;6.90;81.30
14733;DHT22;7457;50.960;6.830;2022-11-21T18:30:45;6.90;81.20